createdAt,value
2018-05-04T00:00:34.750Z,101968.63
2018-05-04T00:03:39.060Z,101964.98
2018-05-04T00:06:43.940Z,101963.15
2018-05-04T00:09:47.290Z,101966.70
2018-05-04T00:12:50.724Z,101973.88
2018-05-04T00:15:54.102Z,101973.93
2018-05-04T00:18:57.326Z,101973.25
2018-05-04T00:22:00.734Z,101968.11
2018-05-04T00:25:03.915Z,101964.10
2018-05-04T00:28:07.223Z,101964.72
2018-05-04T00:31:10.483Z,101963.38
2018-05-04T00:34:14.804Z,101964.24
2018-05-04T00:37:18.051Z,101968.31
2018-05-04T00:40:21.432Z,101966.88
2018-05-04T00:43:24.793Z,101969.43
2018-05-04T00:46:28.088Z,101964.64
2018-05-04T00:49:31.384Z,101957.64
2018-05-04T00:52:34.728Z,101955.66
2018-05-04T00:55:38.089Z,101958.65
2018-05-04T00:58:41.434Z,101959.79
2018-05-04T01:01:45.600Z,101959.02
2018-05-04T01:04:48.909Z,101966.24
2018-05-04T01:07:52.226Z,101963.50
2018-05-04T01:10:55.380Z,101966.09
2018-05-04T01:13:58.801Z,101966.25
2018-05-04T01:17:02.105Z,101961.73
2018-05-04T01:20:05.464Z,101962.84
2018-05-04T01:23:08.713Z,101966.79
2018-05-04T01:26:11.987Z,101970.89
2018-05-04T01:29:15.387Z,101973.41
2018-05-04T01:32:18.685Z,101975.19
2018-05-04T01:35:21.980Z,101970.24
2018-05-04T01:38:25.379Z,101972.92
2018-05-04T01:41:28.679Z,101976.28
2018-05-04T01:44:31.922Z,101974.03
2018-05-04T01:47:35.271Z,101978.42
2018-05-04T01:50:38.708Z,101973.37
2018-05-04T01:53:42.551Z,101974.89
2018-05-04T01:56:45.828Z,101973.44
2018-05-04T01:59:49.116Z,101969.12
2018-05-04T02:02:52.428Z,101968.31
2018-05-04T02:05:55.763Z,101968.92
2018-05-04T02:08:59.093Z,101971.10
2018-05-04T02:12:02.293Z,101971.59
2018-05-04T02:15:05.575Z,101973.47
2018-05-04T02:18:08.950Z,101978.93
2018-05-04T02:21:12.740Z,101981.52
2018-05-04T02:24:15.987Z,101982.82
2018-05-04T02:27:19.296Z,101982.82
2018-05-04T02:30:22.659Z,101982.40
2018-05-04T02:33:25.960Z,101986.79
2018-05-04T02:36:29.346Z,101991.90
2018-05-04T02:39:32.656Z,101997.95
2018-05-04T02:42:35.956Z,102008.46
2018-05-04T02:45:39.310Z,102004.73
2018-05-04T02:48:43.671Z,102007.54
2018-05-04T02:51:46.944Z,102015.33
2018-05-04T02:54:50.195Z,102011.89
2018-05-04T02:57:53.504Z,102005.06
2018-05-04T03:00:56.756Z,102011.76
2018-05-04T03:04:00.180Z,102010.21
2018-05-04T03:07:03.564Z,102006.02
2018-05-04T03:10:06.977Z,102003.71
2018-05-04T03:13:10.309Z,101999.29
2018-05-04T03:16:14.286Z,102004.87
2018-05-04T03:19:17.511Z,102006.84
2018-05-04T03:22:20.866Z,102002.90
2018-05-04T03:25:24.164Z,102007.70
2018-05-04T03:28:27.477Z,102015.32
2018-05-04T03:31:30.860Z,102011.22
2018-05-04T03:34:34.157Z,102009.18
2018-05-04T03:37:37.399Z,102015.27
2018-05-04T03:40:40.795Z,102022.46
2018-05-04T03:43:45.227Z,102027.30
2018-05-04T03:46:48.423Z,102031.15
2018-05-04T03:49:51.771Z,102028.56
2018-05-04T03:52:55.118Z,102030.44
2018-05-04T03:55:58.419Z,102036.97
2018-05-04T04:00:11.575Z,102034.42
2018-05-04T04:04:21.971Z,102040.95
2018-05-04T04:07:25.372Z,102044.67
2018-05-04T04:10:28.672Z,102049.57
2018-05-04T04:13:31.961Z,102049.87
2018-05-04T04:16:35.368Z,102044.82
2018-05-04T04:19:38.770Z,102041.17
2018-05-04T04:22:42.647Z,102053.57
2018-05-04T04:25:45.975Z,102057.51
2018-05-04T04:28:49.318Z,102063.94
2018-05-04T04:31:52.676Z,102072.66
2018-05-04T04:34:56.065Z,102075.55
2018-05-04T04:37:59.383Z,102073.56
2018-05-04T04:41:02.660Z,102078.97
2018-05-04T04:44:06.059Z,102084.74
2018-05-04T04:47:09.306Z,102082.56
2018-05-04T04:50:13.954Z,102081.03
2018-05-04T04:53:17.237Z,102089.14
2018-05-04T04:56:20.587Z,102085.49
2018-05-04T04:59:23.759Z,102087.86
2018-05-04T05:02:44.256Z,102090.10
2018-05-04T05:05:47.535Z,102092.44
2018-05-04T05:08:50.870Z,102098.25
2018-05-04T05:11:54.247Z,102099.36
2018-05-04T05:14:57.712Z,102102.45
2018-05-04T05:18:01.002Z,102097.81
2018-05-04T05:21:04.529Z,102099.07
2018-05-04T05:24:07.843Z,102100.36
2018-05-04T05:27:12.057Z,102098.50
2018-05-04T05:30:15.395Z,102097.14
2018-05-04T05:33:18.791Z,102093.95
2018-05-04T05:36:22.109Z,102098.22
2018-05-04T05:39:25.307Z,102101.59
2018-05-04T05:42:28.668Z,102098.36
2018-05-04T05:45:31.889Z,102095.78
2018-05-04T05:48:35.247Z,102093.49
2018-05-04T05:51:38.600Z,102096.74
2018-05-04T05:54:41.917Z,102094.24
2018-05-04T05:57:45.201Z,102097.65
2018-05-04T06:00:49.889Z,102091.06
2018-05-04T06:03:53.231Z,102089.22
2018-05-04T06:06:56.584Z,102088.45
2018-05-04T06:09:59.849Z,102087.78
2018-05-04T06:13:03.219Z,102086.55
2018-05-04T06:16:06.298Z,102086.26
2018-05-04T06:19:10.630Z,102081.18
2018-05-04T06:22:14.029Z,102083.25
2018-05-04T06:25:18.029Z,102081.18
2018-05-04T06:28:21.279Z,102083.16
2018-05-04T06:31:24.564Z,102080.78
2018-05-04T06:34:27.915Z,102083.21
2018-05-04T06:37:31.157Z,102079.00
2018-05-04T06:40:34.521Z,102076.98
2018-05-04T06:43:37.815Z,102067.10
2018-05-04T06:46:42.118Z,102066.67
2018-05-04T06:49:45.686Z,102070.98
2018-05-04T06:52:49.097Z,102073.46
2018-05-04T06:55:52.249Z,102077.20
2018-05-04T06:58:55.567Z,102075.52
2018-05-04T07:01:59.201Z,102069.17
2018-05-04T07:05:02.951Z,102059.32
2018-05-04T07:08:06.360Z,102062.42
2018-05-04T07:11:09.847Z,102066.97
2018-05-04T07:14:13.243Z,102072.33
2018-05-04T07:17:16.976Z,102075.75
2018-05-04T07:20:20.508Z,102071.74
2018-05-04T07:23:23.885Z,102075.48
2018-05-04T07:26:28.357Z,102074.93
2018-05-04T07:29:31.580Z,102073.72
2018-05-04T07:32:34.820Z,102066.06
2018-05-04T07:35:38.805Z,102064.39
2018-05-04T07:38:42.153Z,102064.68
2018-05-04T07:41:46.167Z,102057.85
2018-05-04T07:44:49.439Z,102050.52
2018-05-04T07:47:52.820Z,102044.57
2018-05-04T07:50:56.060Z,102045.05
2018-05-04T07:53:59.407Z,102053.62
2018-05-04T07:57:02.660Z,102055.57
2018-05-04T08:00:05.931Z,102056.99
2018-05-04T08:03:09.246Z,102055.16
2018-05-04T08:06:12.459Z,102060.63
2018-05-04T08:09:16.399Z,102059.16
2018-05-04T08:12:19.790Z,102059.86
2018-05-04T08:15:22.991Z,102064.78
2018-05-04T08:18:26.301Z,102068.71
2018-05-04T08:21:29.488Z,102064.23
2018-05-04T08:24:32.876Z,102061.37
2018-05-04T08:27:36.206Z,102063.54
2018-05-04T08:30:39.546Z,102062.59
2018-05-04T08:33:42.880Z,102065.88
2018-05-04T08:36:46.100Z,102062.20
2018-05-04T08:39:49.332Z,102058.44
2018-05-04T08:42:52.718Z,102056.29
2018-05-04T08:45:55.982Z,102044.30
2018-05-04T08:48:59.329Z,102046.75
2018-05-04T08:52:02.683Z,102046.62
2018-05-04T08:55:06.064Z,102039.57
2018-05-04T08:58:09.454Z,102034.87
2018-05-04T09:01:12.688Z,102033.45
2018-05-04T09:04:17.040Z,102021.99
2018-05-04T09:07:20.396Z,102026.74
2018-05-04T09:10:23.792Z,102025.44
2018-05-04T09:13:26.976Z,102013.67
2018-05-04T09:16:30.360Z,102014.46
2018-05-04T09:19:33.577Z,102012.53
2018-05-04T09:22:36.925Z,102008.91
2018-05-04T09:25:40.183Z,102007.63
2018-05-04T09:28:43.411Z,102005.48
2018-05-04T09:31:47.771Z,102004.63
2018-05-04T09:34:53.404Z,101997.36
2018-05-04T09:37:56.736Z,101993.76
2018-05-04T09:41:00.215Z,101989.29
2018-05-04T09:44:03.551Z,101987.90
2018-05-04T09:50:16.087Z,101990.83
2018-05-04T09:53:20.248Z,101992.89
2018-05-04T09:56:23.725Z,101985.55
2018-05-04T09:59:27.127Z,101973.76
2018-05-04T10:02:30.464Z,101977.53
2018-05-04T10:05:33.737Z,101973.18
2018-05-04T10:08:36.895Z,101968.54
2018-05-04T10:11:40.325Z,101970.50
2018-05-04T10:14:43.710Z,101971.91
2018-05-04T10:17:48.155Z,101975.20
2018-05-04T10:20:51.524Z,101965.25
2018-05-04T10:23:54.925Z,101965.65
2018-05-04T10:26:58.215Z,101956.96
2018-05-04T10:30:02.167Z,101953.01
2018-05-04T10:33:05.675Z,101955.50
2018-05-04T10:36:09.257Z,101955.62
2018-05-04T10:39:13.181Z,101951.75
2018-05-04T10:42:18.164Z,101946.96
2018-05-04T10:45:21.726Z,101950.15
2018-05-04T10:48:25.360Z,101949.84
2018-05-04T10:51:29.233Z,101946.28
2018-05-04T10:54:33.255Z,101947.04
2018-05-04T10:57:36.782Z,101943.92
2018-05-04T11:00:40.388Z,101944.72
2018-05-04T11:03:44.371Z,101947.63
2018-05-04T11:06:48.844Z,101941.80
2018-05-04T11:09:52.402Z,101941.81
2018-05-04T11:12:56.939Z,101939.44
2018-05-04T11:16:00.560Z,101938.26
2018-05-04T11:19:04.378Z,101940.46
2018-05-04T11:22:08.438Z,101933.32
2018-05-04T11:25:12.421Z,101923.68
2018-05-04T11:28:16.493Z,101927.05
2018-05-04T11:31:21.281Z,101922.50
2018-05-04T11:34:24.663Z,101921.75
2018-05-04T11:37:28.554Z,101923.18
2018-05-04T11:40:32.172Z,101917.47
2018-05-04T11:43:36.153Z,101925.78
2018-05-04T11:46:39.891Z,101917.44
2018-05-04T11:49:43.635Z,101917.68
2018-05-04T11:52:48.190Z,101916.97
2018-05-04T11:55:51.469Z,101918.30
2018-05-04T11:58:54.841Z,101917.50
2018-05-04T12:01:58.185Z,101923.05
2018-05-04T12:05:01.468Z,101924.98
2018-05-04T12:08:04.756Z,101920.63
2018-05-04T12:11:08.053Z,101922.21
2018-05-04T12:14:11.416Z,101925.01
2018-05-04T12:17:14.747Z,101924.80
2018-05-04T12:20:18.940Z,101921.72
2018-05-04T12:23:22.183Z,101926.73
2018-05-04T12:26:25.513Z,101927.93
2018-05-04T12:29:28.814Z,101926.63
2018-05-04T12:32:32.051Z,101920.28
2018-05-04T12:35:36.427Z,101923.00
2018-05-04T12:38:39.863Z,101926.69
2018-05-04T12:41:43.079Z,101923.61
2018-05-04T12:44:46.435Z,101923.59
2018-05-04T12:47:49.607Z,101924.97
2018-05-04T12:50:53.731Z,101919.09
2018-05-04T12:53:56.959Z,101917.26
2018-05-04T12:57:00.229Z,101920.24
2018-05-04T13:00:03.669Z,101909.34
2018-05-04T13:03:08.190Z,101912.99
2018-05-04T13:06:11.559Z,101918.76
2018-05-04T13:09:14.816Z,101914.94
2018-05-04T13:12:17.987Z,101904.18
2018-05-04T13:15:21.315Z,101904.43
2018-05-04T13:18:24.493Z,101907.60
2018-05-04T13:21:28.733Z,101902.94
2018-05-04T13:24:32.086Z,101895.68
2018-05-04T13:27:35.354Z,101888.56
2018-05-04T13:30:38.845Z,101886.37
2018-05-04T13:33:42.329Z,101885.91
2018-05-04T13:36:45.647Z,101888.49
2018-05-04T13:39:48.981Z,101887.17
2018-05-04T13:42:52.357Z,101880.37
2018-05-04T13:45:55.756Z,101886.15
2018-05-04T13:48:58.984Z,101876.31
2018-05-04T13:52:02.345Z,101869.52
2018-05-04T13:55:05.570Z,101879.96
2018-05-04T13:58:08.954Z,101881.11
2018-05-04T14:01:13.422Z,101885.17
2018-05-04T14:04:17.800Z,101877.90
2018-05-04T14:07:21.118Z,101875.53
2018-05-04T14:10:24.492Z,101873.95
2018-05-04T14:13:27.676Z,101872.48
2018-05-04T14:16:30.995Z,101863.34
2018-05-04T14:19:34.276Z,101866.36
2018-05-04T14:22:37.584Z,101863.39
2018-05-04T14:25:40.877Z,101858.80
2018-05-04T14:28:44.268Z,101865.41
2018-05-04T14:31:48.284Z,101866.53
2018-05-04T14:34:51.787Z,101860.52
2018-05-04T14:37:54.886Z,101857.65
2018-05-04T14:40:58.206Z,101859.30
2018-05-04T14:44:01.472Z,101857.97
2018-05-04T14:47:04.751Z,101870.49
2018-05-04T14:50:08.015Z,101873.38
2018-05-04T14:53:11.324Z,101876.42
2018-05-04T14:56:15.051Z,101870.85
2018-05-04T14:59:18.329Z,101869.29
2018-05-04T15:02:21.540Z,101874.86
2018-05-04T15:05:24.867Z,101869.75
2018-05-04T15:08:28.208Z,101877.18
2018-05-04T15:11:31.447Z,101875.78
2018-05-04T15:14:34.829Z,101877.64
2018-05-04T15:17:38.177Z,101876.03
2018-05-04T15:20:41.948Z,101878.83
2018-05-04T15:23:46.192Z,101880.50
2018-05-04T15:26:49.661Z,101888.13
2018-05-04T15:29:52.996Z,101883.13
2018-05-04T15:32:56.300Z,101885.43
2018-05-04T15:35:59.748Z,101889.05
2018-05-04T15:39:03.148Z,101885.86
2018-05-04T15:42:06.482Z,101891.76
2018-05-04T15:45:09.890Z,101894.04
2018-05-04T15:48:17.423Z,101892.63
2018-05-04T15:52:24.663Z,101898.36
2018-05-04T15:55:28.020Z,101893.72
2018-05-04T15:58:31.386Z,101898.23
2018-05-04T16:01:34.728Z,101903.84
2018-05-04T16:04:38.046Z,101902.82
2018-05-04T16:07:41.268Z,101907.06
2018-05-04T16:10:44.504Z,101902.95
2018-05-04T16:13:49.428Z,101908.89
2018-05-04T16:16:52.811Z,101904.22
2018-05-04T16:19:56.055Z,101906.63
2018-05-04T16:22:59.418Z,101913.19
2018-05-04T16:26:02.759Z,101909.93
2018-05-04T16:29:07.689Z,101912.65
2018-05-04T16:32:10.912Z,101904.83
2018-05-04T16:35:14.136Z,101904.56
2018-05-04T16:38:17.434Z,101908.91
2018-05-04T16:41:20.753Z,101905.53
2018-05-04T16:44:24.064Z,101911.87
2018-05-04T16:47:27.457Z,101904.04
2018-05-04T16:50:30.883Z,101911.56
2018-05-04T16:53:34.726Z,101911.49
2018-05-04T16:56:38.145Z,101905.31
2018-05-04T16:59:41.576Z,101909.41
2018-05-04T17:02:44.926Z,101910.30
2018-05-04T17:05:48.360Z,101911.21
2018-05-04T17:08:51.801Z,101912.65
2018-05-04T17:11:55.361Z,101912.94
2018-05-04T17:14:58.685Z,101916.41
2018-05-04T17:18:02.100Z,101916.50
2018-05-04T17:21:05.303Z,101917.38
2018-05-04T17:24:09.094Z,101919.79
2018-05-04T17:27:12.447Z,101921.02
2018-05-04T17:30:15.668Z,101927.40
2018-05-04T17:33:19.020Z,101933.98
2018-05-04T17:36:23.382Z,101939.91
2018-05-04T17:39:26.765Z,101945.94
2018-05-04T17:42:30.220Z,101947.33
2018-05-04T17:45:33.571Z,101948.30
2018-05-04T17:48:36.951Z,101959.07
2018-05-04T17:51:41.136Z,101956.54
2018-05-04T17:54:44.459Z,101958.07
2018-05-04T17:57:47.826Z,101962.00
2018-05-04T18:00:51.157Z,101963.68
2018-05-04T18:03:54.380Z,101962.19
2018-05-04T18:06:57.547Z,101974.92
2018-05-04T18:10:00.888Z,101979.41
2018-05-04T18:13:04.248Z,101981.55
2018-05-04T18:16:07.639Z,101986.75
2018-05-04T18:19:10.903Z,101989.63
2018-05-04T18:22:14.127Z,101992.57
2018-05-04T18:25:17.506Z,102004.12
2018-05-04T18:28:21.579Z,102010.03
2018-05-04T18:31:24.842Z,102014.54
2018-05-04T18:34:28.152Z,102016.23
2018-05-04T18:37:31.548Z,102021.48
2018-05-04T18:40:34.943Z,102023.42
2018-05-04T18:43:38.299Z,102029.24
2018-05-04T18:46:43.295Z,102032.81
2018-05-04T18:49:46.700Z,102034.34
2018-05-04T18:52:50.106Z,102041.14
2018-05-04T18:55:53.454Z,102048.02
2018-05-04T18:58:56.734Z,102054.64
2018-05-04T19:01:59.990Z,102056.68
2018-05-04T19:05:03.242Z,102062.14
2018-05-04T19:08:06.586Z,102067.72
2018-05-04T19:11:09.992Z,102064.47
2018-05-04T19:14:14.141Z,102070.34
2018-05-04T19:17:17.498Z,102069.75
2018-05-04T19:20:20.863Z,102075.87
2018-05-04T19:23:25.220Z,102083.03
2018-05-04T19:26:28.594Z,102083.10
2018-05-04T19:29:31.986Z,102087.85
2018-05-04T19:32:35.279Z,102087.62
2018-05-04T19:35:38.695Z,102096.59
2018-05-04T19:38:42.045Z,102102.19
2018-05-04T19:41:45.400Z,102104.61
2018-05-04T19:44:48.875Z,102110.48
2018-05-04T19:47:52.388Z,102108.54
2018-05-04T19:50:55.663Z,102115.08
2018-05-04T19:53:58.856Z,102115.83
2018-05-04T19:57:02.222Z,102119.66
2018-05-04T20:00:06.577Z,102124.40
2018-05-04T20:03:09.950Z,102125.40
2018-05-04T20:06:13.311Z,102125.40
2018-05-04T20:09:16.505Z,102133.64
2018-05-04T20:12:20.232Z,102135.78
2018-05-04T20:15:23.589Z,102137.02
2018-05-04T20:18:26.812Z,102136.50
2018-05-04T20:21:30.083Z,102143.98
2018-05-04T20:24:33.484Z,102145.60
2018-05-04T20:27:36.804Z,102145.23
2018-05-04T20:30:40.210Z,102143.43
2018-05-04T20:33:43.549Z,102145.50
2018-05-04T20:36:46.804Z,102150.56
2018-05-04T20:39:52.604Z,102150.52
2018-05-04T20:42:55.957Z,102147.75
2018-05-04T20:45:59.368Z,102145.85
2018-05-04T20:49:04.708Z,102149.23
2018-05-04T20:52:07.983Z,102153.70
2018-05-04T20:55:12.314Z,102152.40
2018-05-04T20:58:15.567Z,102149.84
2018-05-04T21:01:19.505Z,102154.44
2018-05-04T21:04:22.930Z,102155.32
2018-05-04T21:07:26.321Z,102160.91
2018-05-04T21:10:29.648Z,102167.76
2018-05-04T21:13:32.928Z,102176.82
2018-05-04T21:16:36.324Z,102175.95
2018-05-04T21:19:39.627Z,102178.64
2018-05-04T21:22:42.920Z,102183.96
2018-05-04T21:25:47.246Z,102186.90
2018-05-04T21:28:51.591Z,102191.93
2018-05-04T21:31:54.975Z,102196.33
2018-05-04T21:34:58.271Z,102202.55
2018-05-04T21:38:01.648Z,102203.42
2018-05-04T21:41:04.993Z,102208.24
2018-05-04T21:44:08.203Z,102215.66
2018-05-04T21:47:11.469Z,102221.52
2018-05-04T21:50:14.881Z,102224.00
2018-05-04T21:53:18.243Z,102219.33
2018-05-04T21:56:22.475Z,102226.08
2018-05-04T21:59:25.785Z,102222.69
2018-05-04T22:02:29.064Z,102226.27
2018-05-04T22:05:32.404Z,102228.27
2018-05-04T22:08:35.776Z,102235.22
2018-05-04T22:11:39.078Z,102243.77
2018-05-04T22:14:42.475Z,102243.39
2018-05-04T22:17:45.757Z,102245.52
2018-05-04T22:20:49.041Z,102241.84
2018-05-04T22:23:52.659Z,102244.51
2018-05-04T22:26:55.956Z,102244.73
2018-05-04T22:30:00.272Z,102245.09
2018-05-04T22:33:03.710Z,102250.60
2018-05-04T22:36:07.102Z,102244.35
2018-05-04T22:39:10.366Z,102245.85
2018-05-04T22:42:13.767Z,102251.06
2018-05-04T22:45:17.104Z,102241.23
2018-05-04T22:48:20.999Z,102245.21
2018-05-04T22:51:24.395Z,102244.44
2018-05-04T22:54:27.593Z,102248.38
2018-05-04T22:57:31.836Z,102251.07
2018-05-04T23:00:35.222Z,102253.56
2018-05-04T23:03:38.531Z,102256.68
2018-05-04T23:06:41.696Z,102261.97
2018-05-04T23:09:45.085Z,102253.01
2018-05-04T23:12:48.324Z,102261.07
2018-05-04T23:15:52.728Z,102255.86
2018-05-04T23:18:56.010Z,102258.24
2018-05-04T23:21:59.407Z,102254.43
2018-05-04T23:25:02.747Z,102257.28
2018-05-04T23:28:06.146Z,102254.91
2018-05-04T23:31:09.495Z,102254.56
2018-05-04T23:34:12.783Z,102258.05
2018-05-04T23:37:16.187Z,102263.35
2018-05-04T23:40:19.518Z,102266.21
2018-05-04T23:43:23.031Z,102267.32
2018-05-04T23:46:26.337Z,102270.88
2018-05-04T23:49:29.699Z,102273.64
2018-05-04T23:52:33.092Z,102276.18
2018-05-04T23:55:36.512Z,102274.64
2018-05-04T23:58:39.796Z,102278.92
